Plessisville, Canada
Current Conditions -  °F | °C
As of 9:38 AM on Saturday 22 Nov 2014 (Local Time) from CYQB Reporting Station
Light Snow Light Snow  
Wind Chill:   Ceiling: 2200
Heat Index: 14°   Visibility: 8mi
Dew Point:   Wind: 5mph
Humidity: 79%   Direction: 360°N
Pressure: 30.01"   Gusts: NA
Location:  46.22°N, 71.77°W
Report Text: CYQB 221438Z 36004KT 8SM -SN OVC022 M10/M13 A3001 RMK SC8 VIS HIER S SLP169
Loading
Personal Weather Stations






























Interactive Weather Map New forecast layout! Learn more

10-Day Weather Forecast

Advertisements
Track Severe Weather on mobile